createdAt,value
2023-01-03T00:02:12.018Z,18.90
2023-01-03T00:12:30.456Z,18.30
2023-01-03T00:22:38.300Z,21.80
2023-01-03T00:32:45.430Z,19.90
2023-01-03T00:43:10.187Z,17.30
2023-01-03T00:53:17.570Z,19.50
2023-01-03T01:03:25.114Z,15.30
2023-01-03T01:13:34.319Z,12.50
2023-01-03T01:23:42.976Z,15.90
2023-01-03T01:33:49.386Z,16.90
2023-01-03T01:44:14.929Z,14.80
2023-01-03T01:54:22.719Z,10.70
2023-01-03T02:04:34.388Z,12.50
2023-01-03T02:14:39.964Z,10.60
2023-01-03T02:25:18.671Z,15.00
2023-01-03T02:35:24.246Z,14.00
2023-01-03T02:45:37.896Z,13.40
2023-01-03T02:55:47.811Z,10.70
2023-01-03T03:05:55.334Z,12.60
2023-01-03T03:16:06.974Z,10.10
2023-01-03T03:26:17.429Z,14.20
2023-01-03T03:36:31.834Z,11.30
2023-01-03T03:46:41.800Z,7.80
2023-01-03T03:56:50.313Z,8.20
2023-01-03T04:06:58.052Z,6.60
2023-01-03T04:17:05.560Z,8.20
2023-01-03T04:27:12.775Z,8.80
2023-01-03T04:37:19.078Z,4.90
2023-01-03T04:47:26.316Z,4.90
2023-01-03T04:57:33.747Z,6.70
2023-01-03T05:07:41.016Z,5.10
2023-01-03T05:17:48.217Z,6.10
2023-01-03T05:27:55.536Z,3.50
2023-01-03T05:38:02.718Z,6.00
2023-01-03T05:48:11.460Z,5.10
2023-01-03T05:58:19.256Z,8.10
2023-01-03T06:08:26.554Z,6.70
2023-01-03T06:18:35.579Z,5.00
2023-01-03T06:28:42.943Z,5.10
2023-01-03T06:38:50.448Z,9.10
2023-01-03T06:49:15.429Z,9.10
2023-01-03T06:59:23.190Z,7.60
2023-01-03T07:09:30.707Z,5.10
2023-01-03T07:19:37.829Z,6.40
2023-01-03T07:29:44.947Z,7.60
2023-01-03T07:39:51.904Z,7.10
2023-01-03T07:49:59.195Z,9.80
2023-01-03T08:00:07.431Z,8.70
2023-01-03T08:10:31.999Z,7.30
2023-01-03T08:20:39.074Z,8.10
2023-01-03T08:30:47.026Z,11.40
2023-01-03T08:40:55.143Z,9.60
2023-01-03T08:51:02.446Z,8.70
2023-01-03T09:01:11.701Z,5.50
2023-01-03T09:11:18.743Z,8.70
2023-01-03T09:21:25.859Z,5.40
2023-01-03T09:31:32.195Z,5.00
2023-01-03T09:41:41.753Z,6.00
2023-01-03T10:02:34.538Z,7.30
2023-01-03T10:22:49.379Z,8.30
2023-01-03T10:33:05.201Z,7.60
2023-01-03T10:43:11.035Z,7.30
2023-01-03T10:53:22.247Z,6.00
2023-01-03T11:03:29.517Z,8.50
2023-01-03T11:13:34.996Z,10.80
2023-01-03T11:23:58.952Z,6.40
2023-01-03T11:34:06.812Z,6.10
2023-01-03T11:44:24.102Z,10.40
2023-01-03T11:54:52.811Z,10.40
2023-01-03T12:15:12.615Z,7.20
2023-01-03T12:25:18.650Z,10.00
2023-01-03T12:35:37.751Z,10.60
2023-01-03T12:45:43.097Z,7.80
2023-01-03T12:55:50.278Z,7.60
2023-01-03T13:05:58.070Z,13.90
2023-01-03T13:16:36.032Z,13.80
2023-01-03T13:27:20.723Z,10.90
2023-01-03T13:37:29.086Z,12.80
2023-01-03T13:47:34.820Z,17.20
2023-01-03T13:57:51.823Z,18.50
2023-01-03T14:08:19.495Z,15.90
2023-01-03T14:18:32.943Z,17.40
2023-01-03T14:28:41.286Z,8.60
2023-01-03T14:38:47.784Z,15.30
2023-01-03T14:49:02.689Z,17.60
2023-01-03T14:59:10.067Z,16.90
2023-01-03T15:09:14.459Z,53.20
2023-01-03T15:19:22.706Z,44.30
2023-01-03T15:29:46.207Z,26.80
2023-01-03T15:39:53.830Z,24.60
2023-01-03T15:50:03.827Z,22.50
2023-01-03T16:00:16.642Z,32.70
2023-01-03T16:10:23.855Z,42.20
2023-01-03T16:20:31.722Z,48.00
2023-01-03T16:30:39.191Z,40.40
2023-01-03T16:40:47.308Z,39.80
2023-01-03T16:50:52.518Z,47.20
2023-01-03T17:01:00.048Z,61.20
2023-01-03T17:11:09.155Z,57.30
2023-01-03T17:21:26.578Z,74.70
2023-01-03T17:31:33.699Z,43.50
2023-01-03T17:41:55.243Z,35.60
2023-01-03T17:52:06.443Z,50.70
2023-01-03T18:02:17.192Z,57.50
2023-01-03T18:12:26.929Z,144.50
2023-01-03T18:32:39.571Z,74.80
2023-01-03T18:43:04.634Z,56.30
2023-01-03T18:53:16.143Z,35.60
2023-01-03T19:03:22.420Z,48.80
2023-01-03T19:13:50.731Z,96.60
2023-01-03T19:23:58.564Z,137.80
2023-01-03T19:34:07.298Z,233.90
2023-01-03T19:44:13.100Z,235.00
2023-01-03T19:54:20.495Z,243.40
2023-01-03T20:04:28.100Z,168.70
2023-01-03T20:14:34.824Z,176.90
2023-01-03T20:24:42.331Z,168.80
2023-01-03T20:34:49.448Z,117.70
2023-01-03T20:44:56.862Z,101.00
2023-01-03T20:55:04.091Z,76.90
2023-01-03T21:05:11.726Z,83.90
2023-01-03T21:15:19.029Z,100.70
2023-01-03T21:25:30.190Z,86.20
2023-01-03T21:35:41.190Z,64.00
2023-01-03T21:45:50.959Z,58.80
2023-01-03T22:06:11.190Z,77.90
2023-01-03T22:16:19.139Z,55.30
2023-01-03T22:26:30.753Z,55.40
2023-01-03T22:36:41.675Z,62.00
2023-01-03T22:46:48.768Z,60.10
2023-01-03T22:56:56.078Z,59.70
2023-01-03T23:07:02.655Z,41.70
2023-01-03T23:17:27.286Z,44.40
2023-01-03T23:27:33.673Z,43.00
2023-01-03T23:37:41.095Z,39.30
2023-01-03T23:47:48.144Z,37.70
2023-01-03T23:57:55.322Z,52.00
